Date,TemperatureHighF,TemperatureAvgF,TemperatureLowF,DewpointHighF,DewpointAvgF,DewpointLowF,HumidityHigh,HumidityAvg,HumidityLow,PressureMaxIn,PressureMinIn,WindSpeedMaxMPH,WindSpeedAvgMPH,GustSpeedMaxMPH,PrecipitationSumIn
2013-1-1,68.3,57.0,52.6,65.3,55.7,51.5,96,96,90,30.13,29.96,5,0,5,0.07
2013-1-2,78.8,68.2,56.0,71.1,64.7,54.9,96,90,72,29.98,29.91,11,1,11,0.00
2013-1-3,67.1,63.3,60.4,65.9,62.1,59.3,96,96,96,30.07,29.97,6,0,6,0.05
2013-1-4,60.4,59.1,57.0,59.3,58.0,55.9,96,96,96,30.18,30.05,7,0,7,0.00
2013-1-5,67.9,63.1,57.8,66.6,61.9,56.5,96,96,94,30.19,30.11,3,0,3,0.00
2013-1-6,81.1,73.5,64.8,75.1,70.6,63.6,96,91,77,30.11,29.97,12,1,12,0.00
2013-1-7,66.6,62.6,60.9,65.4,61.5,59.8,96,96,96,30.09,30.02,4,0,4,0.02
2013-1-8,72.1,67.9,60.7,70.9,66.7,59.6,96,96,96,30.12,30.06,5,0,5,0.01
2013-1-9,85.9,75.3,68.4,76.2,70.7,67.2,96,87,61,30.19,30.07,4,0,13,0.00
2013-1-10,69.6,67.2,65.0,68.4,66.0,63.6,96,96,96,30.19,30.17,0,0,1,0.00
2013-1-11,73.5,69.6,64.8,72.3,68.4,63.6,96,96,95,30.18,30.06,6,0,6,0.00
2013-1-12,83.8,78.3,66.1,72.9,70.6,64.9,96,78,67,30.09,30.00,11,1,11,0.01
2013-1-13,82.4,72.5,66.6,73.2,69.0,55.3,96,90,67,30.07,30.00,6,0,7,0.00
2013-1-14,73.3,66.0,60.2,67.9,63.9,59.1,96,93,76,30.10,30.03,3,0,3,0.00
2013-1-15,68.4,64.4,60.1,66.9,63.2,59.0,96,96,93,30.06,29.97,0,0,0,0.05
2013-1-16,80.9,71.5,60.1,68.6,65.1,58.8,96,82,60,30.00,29.92,8,0,11,0.00
2013-1-17,69.4,61.2,56.7,68.2,57.2,50.6,96,87,77,30.07,29.94,17,3,17,0.06
2013-1-18,56.7,50.1,42.8,55.4,46.3,38.9,96,87,78,30.22,30.06,5,0,5,0.01
2013-1-19,70.6,66.5,56.2,65.3,62.4,55.1,96,87,82,30.18,30.05,7,0,7,0.02
2013-1-20,78.1,71.4,64.2,70.1,66.7,63.0,96,86,72,30.07,29.94,6,0,6,0.00
2013-1-21,63.5,60.6,58.7,62.3,59.4,57.6,96,96,95,30.01,29.97,0,0,0,0.00
2013-1-22,67.4,56.0,48.3,58.1,46.1,38.6,96,71,41,30.19,30.00,3,0,3,0.04
2013-1-23,72.7,58.3,46.1,49.4,46.3,42.4,96,68,35,30.23,30.19,1,0,1,0.00
2013-1-24,62.0,54.4,46.0,56.1,52.4,44.2,96,93,80,30.24,30.17,1,0,1,0.00
2013-1-25,56.6,53.3,49.8,55.5,52.1,48.5,96,96,91,30.20,30.13,0,0,0,0.00
2013-1-26,65.0,53.7,46.1,61.2,52.4,45.0,96,95,89,30.19,30.11,0,0,0,0.00
2013-1-27,81.1,67.8,51.9,61.8,57.6,50.8,96,73,47,30.20,30.12,10,0,10,0.00
2013-1-28,70.6,65.9,59.2,67.7,64.3,58.1,96,94,82,30.22,30.13,5,0,5,0.00
2013-1-29,74.2,69.1,60.2,70.9,67.3,59.1,96,94,85,30.15,30.00,4,0,4,0.05
2013-1-30,78.1,71.8,65.5,70.3,69.1,64.1,96,91,76,30.01,29.84,17,1,17,0.00
2013-1-31,71.1,59.9,50.1,69.9,53.0,38.5,96,79,57,30.11,29.85,8,0,8,0.06
2013-2-1,73.2,53.8,38.3,45.4,39.2,30.0,96,64,21,30.27,30.14,1,0,11,0.00
2013-2-2,57.2,51.6,43.3,52.8,48.9,42.2,96,91,72,30.21,30.08,1,0,1,0.00
2013-2-3,60.5,50.1,42.8,58.2,48.9,41.4,96,96,92,30.12,30.02,3,0,3,0.00
2013-2-4,56.7,50.1,45.5,53.4,48.3,44.4,96,94,81,30.07,29.97,0,0,0,0.01
2013-2-5,71.8,56.9,44.5,59.0,52.7,43.4,96,87,62,30.00,29.92,5,0,5,0.04
2013-2-6,80.5,65.9,53.3,66.1,60.2,52.2,96,84,57,30.02,29.93,3,0,11,0.00
2013-2-7,82.0,69.7,60.4,70.9,65.1,59.3,96,87,57,29.97,29.82,5,1,18,0.06
2013-2-8,79.8,69.0,56.5,68.8,65.0,55.4,96,88,63,30.00,29.81,6,1,14,0.02
2013-2-9,72.8,59.8,53.9,60.0,56.0,52.8,96,88,61,30.09,29.98,5,0,5,0.00
2013-2-10,79.2,72.3,64.3,67.8,64.6,59.0,96,78,61,30.15,30.04,14,1,14,0.00
2013-2-11,72.3,66.9,63.7,70.2,65.7,62.5,96,96,93,30.09,30.00,1,0,1,0.00
2013-2-12,73.7,68.7,63.7,72.3,67.5,62.3,96,96,96,30.01,29.87,7,0,7,0.09
2013-2-13,81.8,74.4,61.8,76.9,72.1,60.4,96,93,82,29.90,29.78,25,4,25,0.02
2013-2-14,67.1,62.4,60.1,64.5,61.0,59.0,96,95,89,29.95,29.88,10,0,10,0.42
2013-2-15,60.5,58.8,56.7,59.4,57.7,55.6,96,96,96,29.98,29.87,4,0,4,0.14
2013-2-16,62.0,57.2,53.1,57.6,50.1,40.2,96,78,60,30.04,29.88,21,2,21,0.00
2013-2-17,57.3,49.3,38.6,41.8,33.5,25.9,90,58,30,30.26,30.04,18,1,18,0.00
2013-2-18,58.6,51.4,38.5,50.0,44.3,33.5,96,77,56,30.27,30.12,3,0,3,0.00
2013-2-19,70.1,60.1,52.8,65.6,57.7,49.1,96,92,76,30.12,30.00,7,0,7,0.05
2013-2-20,69.9,63.8,57.3,66.2,62.4,56.2,96,95,89,30.03,29.96,1,0,1,0.01
2013-2-21,82.2,73.7,58.0,71.7,66.8,56.9,96,80,66,29.99,29.90,12,1,12,0.00
2013-2-22,74.7,65.8,59.3,72.1,64.4,58.2,96,95,87,29.99,29.92,11,0,11,0.00
2013-2-23,74.4,71.5,69.9,73.2,70.3,68.7,96,96,96,29.92,29.84,11,0,11,0.00
2013-2-24,82.8,75.2,68.3,75.5,72.0,67.1,96,90,76,29.87,29.81,15,2,15,0.00
2013-2-25,71.6,69.5,67.9,70.4,68.3,66.7,96,96,96,29.82,29.70,5,0,5,0.01
2013-2-26,78.1,69.7,65.0,76.7,68.4,63.8,96,96,91,29.81,29.67,21,1,21,0.40
2013-2-27,72.3,62.9,55.3,63.8,59.5,54.2,96,90,71,29.90,29.81,11,1,11,0.01
2013-2-28,66.3,59.6,52.9,63.1,56.1,51.8,96,88,79,29.92,29.86,8,0,8,0.00
2013-3-1,62.1,57.3,52.3,54.0,49.0,42.2,95,74,60,29.95,29.84,16,1,16,0.00
2013-3-2,62.0,54.3,44.5,49.7,44.5,41.5,94,70,57,30.00,29.91,22,2,22,0.00
2013-3-3,56.7,49.0,39.6,45.4,39.9,32.8,83,71,60,30.08,29.90,19,2,19,0.00
2013-3-4,54.2,47.8,42.5,47.8,44.1,34.4,96,88,57,30.14,30.07,8,0,8,0.00
2013-3-5,72.7,53.9,40.2,61.6,51.8,39.2,96,93,60,30.09,29.96,13,0,13,0.02
2013-3-6,66.0,59.6,49.1,64.8,51.7,41.5,96,76,46,30.06,29.89,19,2,21,0.02
2013-3-7,67.1,52.7,43.1,49.1,42.5,35.5,96,70,42,30.15,30.04,14,1,14,0.00
2013-3-8,77.0,56.0,40.6,53.7,46.3,39.5,96,75,32,30.15,30.04,11,0,11,0.00
2013-3-9,79.0,59.9,44.9,55.3,49.3,43.8,96,73,36,30.12,30.04,7,0,7,0.00
2013-3-10,81.8,71.1,57.3,62.0,59.3,53.3,96,69,47,30.08,29.95,17,1,17,0.00
2013-3-11,79.2,66.3,54.5,66.2,60.3,53.4,96,83,57,30.01,29.81,17,1,17,0.00
2013-3-12,67.4,62.3,54.2,66.2,61.0,53.1,96,96,93,29.97,29.80,8,0,10,0.39
2013-3-13,69.3,56.0,51.0,54.0,49.9,41.9,96,82,37,30.10,29.95,8,1,8,0.39
2013-3-14,64.8,55.5,50.2,50.8,44.3,32.8,89,68,47,30.18,30.09,8,0,8,0.00
2013-3-15,65.8,52.0,40.2,49.6,45.9,38.2,96,82,52,30.20,30.08,9,0,9,0.00
2013-3-16,75.3,61.3,46.8,58.4,53.5,45.7,96,78,45,30.11,29.99,11,1,11,0.00
2013-3-17,76.5,71.2,52.8,64.1,62.2,51.6,96,74,62,30.05,29.95,11,2,11,0.00
2013-3-18,72.0,66.3,58.6,70.8,65.1,57.5,96,96,95,29.95,29.80,9,1,9,0.06
2013-3-19,78.5,70.9,62.7,70.7,66.9,61.5,96,88,76,29.90,29.81,12,1,12,0.07
2013-3-20,73.0,67.2,59.3,69.4,64.7,58.2,96,92,73,29.87,29.74,22,3,22,0.22
2013-3-21,59.3,58.9,58.9,58.2,57.8,57.8,96,96,96,29.81,29.80,0,0,0,0.00
2013-3-22,76.7,62.6,42.5,73.0,58.2,41.4,96,87,55,29.91,29.80,4,0,10,0.15
2013-3-23,82.8,74.0,65.0,78.0,72.0,63.8,96,94,83,29.89,29.72,12,2,12,0.01
2013-3-24,73.9,71.5,69.8,72.7,70.3,67.2,96,96,96,29.74,29.61,12,1,12,0.00
2013-3-25,69.9,64.2,49.5,68.7,53.9,40.2,96,72,38,29.97,29.67,21,1,21,0.00
2013-3-26,56.7,50.9,46.5,50.8,40.6,34.0,82,68,54,30.16,29.96,17,1,17,0.02
2013-3-27,58.9,47.5,41.1,42.8,40.4,35.2,96,77,50,30.23,30.16,10,0,10,0.00
2013-3-28,68.1,54.8,39.2,47.0,42.2,35.8,96,67,35,30.22,30.10,13,1,13,0.00
2013-3-29,76.8,64.7,47.3,54.6,46.7,38.1,96,59,28,30.23,30.13,8,0,8,0.00
2013-3-30,75.8,66.8,58.3,59.3,57.5,52.2,96,74,44,30.17,30.06,11,1,11,0.00
2013-3-31,80.7,67.4,52.6,64.9,59.8,51.5,96,79,50,30.09,29.94,12,1,12,0.00
2013-4-1,80.5,73.1,61.5,72.9,69.5,60.3,96,89,70,29.95,29.89,20,3,20,0.00
2013-4-2,66.4,64.1,63.1,65.2,62.9,61.9,96,96,96,29.94,29.93,0,0,0,0.00
2013-4-3,87.0,73.1,60.9,73.7,68.3,59.8,96,86,56,29.98,29.85,7,1,16,0.01
2013-4-4,71.3,68.6,66.8,70.1,67.4,65.4,96,96,96,29.93,29.78,14,2,14,1.30
2013-4-5,69.1,67.7,66.1,67.9,65.8,61.8,96,94,85,29.84,29.78,10,2,14,0.15
2013-4-6,80.3,67.0,58.0,66.9,61.0,56.9,96,83,52,30.02,29.91,2,0,10,0.03
2013-4-7,83.4,70.8,59.3,67.9,63.3,58.2,96,79,53,30.06,29.95,4,0,12,0.00
2013-4-8,87.0,73.4,60.7,69.0,64.2,59.6,96,77,42,30.04,29.94,3,0,14,0.00
2013-4-9,85.7,73.0,61.2,72.4,66.6,60.0,96,82,56,30.06,29.96,3,0,13,0.04
2013-4-10,87.4,73.6,61.6,75.4,68.2,60.5,96,85,60,30.02,29.87,4,0,18,0.01
2013-4-11,75.6,71.8,69.4,74.4,70.6,68.2,96,96,96,29.90,29.76,11,0,11,0.00
2013-4-12,77.7,75.7,73.9,76.5,74.5,72.7,96,96,96,29.81,29.72,12,1,12,0.00
2013-4-13,84.1,74.4,69.9,74.8,71.5,68.7,96,91,71,29.87,29.80,12,1,12,0.01
2013-4-14,83.4,76.0,69.4,78.8,72.9,66.2,96,90,83,29.92,29.83,7,0,7,0.00
2013-4-15,69.8,68.6,67.6,67.5,66.8,66.2,96,94,89,29.90,29.87,6,1,6,0.00
2013-4-17,89.5,77.3,67.3,74.1,68.5,65.9,96,77,47,30.04,29.92,2,0,13,0.00
2013-4-18,88.2,76.8,65.2,76.5,71.5,64.0,96,85,62,29.96,29.85,3,0,12,0.03
2013-4-19,88.2,78.3,70.3,79.7,73.3,69.1,96,86,60,29.92,29.83,6,2,16,0.22
2013-4-20,79.0,72.7,65.0,73.7,69.9,63.8,96,91,78,30.05,29.88,0,0,10,0.01
2013-4-21,85.1,72.8,61.5,76.1,68.9,60.3,96,88,68,30.04,29.91,2,0,12,0.01
2013-4-22,80.3,71.6,66.8,76.7,70.1,65.6,96,95,86,29.99,29.88,2,0,11,0.94
2013-4-23,86.3,74.1,65.8,73.6,67.5,64.6,96,82,54,30.01,29.92,2,0,10,0.00
2013-4-24,84.7,69.0,60.1,72.3,65.4,59.0,96,89,59,30.05,29.98,12,1,12,0.01
2013-4-25,81.6,76.9,68.6,74.8,71.2,67.4,96,83,68,30.12,30.04,11,1,11,0.00
2013-4-26,69.9,66.4,63.7,68.1,65.2,62.3,96,96,94,30.11,30.10,0,0,0,0.00
2013-4-27,87.2,76.3,66.4,73.9,69.2,65.2,96,80,55,30.13,29.97,2,0,12,0.01
2013-4-28,87.4,75.1,62.6,73.7,67.9,61.5,96,80,52,30.03,29.87,4,1,14,0.00
2013-4-29,85.3,76.0,65.5,75.1,70.3,64.2,96,83,57,29.93,29.82,6,1,16,0.00
2013-4-30,88.4,76.1,67.8,77.7,71.3,66.6,96,86,60,29.91,29.81,10,0,11,0.98
2013-5-1,71.8,68.8,66.1,70.6,67.6,64.8,96,96,96,29.89,29.84,1,0,1,1.29
2013-5-2,75.8,72.7,66.3,74.6,71.5,65.1,96,96,96,29.87,29.73,6,0,6,0.02
2013-5-3,78.1,75.5,69.8,75.5,74.0,68.6,96,95,91,29.75,29.63,6,0,6,0.01
2013-5-4,78.5,71.5,65.0,74.9,69.8,63.8,96,94,85,29.72,29.60,12,3,25,0.03
2013-5-5,78.1,69.4,61.3,69.7,61.6,56.0,96,79,50,29.87,29.71,12,1,18,0.05
2013-5-6,70.3,65.8,60.7,66.7,62.0,59.4,96,88,76,29.93,29.86,11,0,11,0.01
2013-5-7,73.2,66.9,59.9,65.4,63.5,58.7,96,89,74,29.97,29.92,10,1,10,0.06
2013-5-8,78.8,69.0,59.3,69.4,64.0,58.2,96,85,62,30.05,29.95,6,2,16,0.01
2013-5-9,87.4,72.0,59.5,71.8,65.7,58.4,96,83,46,30.07,29.98,6,0,16,0.01
2013-5-10,89.3,75.9,63.7,77.9,70.8,62.5,96,86,57,30.05,29.92,7,1,16,0.03
2013-5-11,88.0,77.6,69.8,80.7,74.6,68.6,96,91,65,29.98,29.90,8,1,17,0.01
2013-5-12,85.3,77.1,70.3,79.9,74.4,69.1,96,92,78,29.97,29.86,18,2,18,0.00
2013-5-13,85.3,73.7,60.4,74.6,65.5,51.4,96,78,41,30.04,29.92,12,0,12,0.00
2013-5-14,86.1,72.7,55.0,62.4,57.3,51.1,96,63,32,30.12,30.01,10,0,10,0.02
2013-5-15,89.3,71.1,58.6,70.8,62.3,57.5,96,78,40,30.11,29.97,1,0,11,0.00
2013-5-16,88.8,80.0,63.7,71.7,67.4,59.1,96,68,38,30.03,29.90,16,1,16,0.05
2013-5-17,87.8,75.0,67.6,74.6,70.9,66.4,96,88,62,30.00,29.94,10,0,10,0.00
2013-5-18,84.5,77.5,69.6,74.6,70.9,66.2,96,82,58,30.01,29.92,12,1,12,0.01
2013-5-19,88.0,80.2,68.6,75.8,71.6,67.4,96,77,61,30.00,29.89,12,2,12,0.00
2013-5-20,78.1,73.0,68.4,75.6,71.7,67.2,96,96,86,29.98,29.87,12,0,12,0.12
2013-5-21,87.0,77.2,68.1,79.7,73.7,66.6,96,90,71,29.94,29.83,5,0,13,0.35
2013-5-22,85.9,80.4,68.8,81.5,75.6,67.6,96,86,66,29.87,29.80,14,2,14,0.01
2013-5-23,81.8,74.7,69.8,79.0,73.4,68.6,96,96,92,29.92,29.83,10,0,10,0.01
2013-5-24,87.4,78.1,70.9,80.2,73.3,69.7,96,87,62,29.95,29.89,6,0,6,0.01
2013-5-25,91.4,83.6,70.1,76.6,71.2,67.4,96,69,46,30.06,29.94,8,1,8,0.00
2013-5-26,88.6,83.3,67.9,69.8,63.5,58.6,96,53,38,30.12,29.99,10,1,10,0.00
2013-5-27,90.1,78.4,63.7,72.1,67.6,62.5,96,73,48,30.08,29.95,10,0,10,0.05
2013-5-28,73.9,72.4,71.3,72.0,71.1,68.6,96,96,93,30.05,30.00,3,0,3,0.00
2013-5-29,88.4,76.8,70.4,78.9,73.6,69.2,96,91,65,30.00,29.92,5,1,18,0.16
2013-5-30,87.8,77.8,71.5,79.9,74.4,70.3,96,90,71,29.98,29.90,5,1,19,0.03
2013-5-31,88.8,76.7,71.5,80.3,74.9,70.3,96,94,76,29.99,29.91,4,0,19,0.18
2013-6-1,87.8,77.4,72.3,83.4,75.5,71.1,96,94,80,29.95,29.85,6,0,13,1.21
2013-6-2,87.2,78.0,72.5,83.6,76.2,71.3,96,94,83,29.91,29.81,13,0,13,0.17
2013-6-3,76.3,75.2,74.0,75.1,74.0,72.7,96,96,96,29.91,29.82,5,0,5,1.43
2013-6-4,79.2,76.4,74.2,77.8,75.2,73.0,96,96,96,29.92,29.87,0,0,0,0.36
2013-6-5,84.3,79.6,74.0,81.4,77.6,72.8,96,94,82,29.92,29.79,14,1,14,0.21
2013-6-6,78.6,75.6,73.0,77.4,74.4,71.8,96,96,96,29.80,29.59,12,3,24,1.77
2013-6-7,80.9,77.4,74.6,79.7,76.2,73.4,96,96,96,29.87,29.71,6,0,6,0.00
2013-6-8,81.8,75.0,71.3,80.6,73.8,70.1,96,96,96,30.00,29.87,7,0,7,2.02
2013-6-9,92.1,82.3,71.5,84.1,79.1,70.3,96,91,71,30.00,29.92,14,1,14,1.41
2013-6-10,92.1,82.9,74.2,85.3,79.4,73.0,96,90,68,29.99,29.91,12,1,12,0.04
2013-6-11,91.4,80.2,73.7,85.2,78.0,72.5,96,93,76,29.99,29.92,6,0,14,0.03
2013-6-12,92.5,83.2,72.0,85.2,78.9,70.8,96,88,69,29.99,29.92,13,1,13,0.00
2013-6-13,84.3,79.1,73.7,81.0,77.6,72.5,96,95,88,29.95,29.83,13,1,13,0.00
2013-6-14,83.4,80.5,76.1,81.6,78.8,74.9,96,95,90,29.86,29.81,12,1,12,0.00
2013-6-15,85.5,77.7,75.1,80.9,76.4,73.9,96,96,89,29.95,29.83,8,0,8,0.53
2013-6-16,92.7,84.5,76.7,85.6,81.3,75.5,96,90,74,29.99,29.93,12,1,12,0.19
2013-6-17,83.4,78.6,75.3,82.1,77.4,74.1,96,96,96,29.98,29.93,0,0,0,0.00
2013-6-18,88.8,80.2,77.9,83.2,78.7,76.7,96,95,81,29.97,29.88,8,0,8,0.05
2013-6-24,93.6,82.6,73.0,84.1,77.6,71.8,96,86,60,30.08,29.96,2,0,11,0.00
2013-6-25,94.5,83.0,73.5,83.3,77.3,72.3,96,85,57,30.05,29.92,4,0,12,0.06
2013-6-26,90.5,79.0,73.0,84.4,76.7,71.8,96,93,75,29.98,29.92,4,0,12,0.10
2013-6-27,91.4,80.0,71.1,85.2,76.8,69.9,96,91,69,29.96,29.86,4,0,13,0.03
2013-6-28,88.6,81.4,74.2,83.7,78.9,73.0,96,92,82,29.89,29.76,7,2,18,0.00
2013-6-29,88.0,79.8,76.0,84.2,78.0,74.8,96,94,81,29.80,29.72,5,1,16,0.22
2013-6-30,88.2,79.6,74.7,85.7,78.1,73.5,96,95,87,29.81,29.73,6,1,18,0.41
2013-7-1,75.8,74.6,72.8,74.6,73.4,71.6,96,96,96,29.90,29.78,10,1,10,0.81
2013-7-2,89.0,76.6,72.8,83.4,75.0,71.6,96,95,82,30.00,29.87,8,0,17,1.13
2013-7-3,88.8,77.7,73.2,85.4,76.1,72.0,96,95,84,30.03,29.95,14,0,14,0.59
2013-7-4,90.3,79.0,73.3,83.9,76.1,72.1,96,91,79,30.05,29.98,13,1,13,0.07
2013-7-5,73.3,72.9,72.7,72.1,71.7,71.5,96,96,96,30.05,30.04,0,0,0,0.00
2013-7-6,92.5,81.4,73.0,84.2,77.8,71.8,96,90,65,30.02,29.92,4,1,12,0.00
2013-7-7,92.3,82.3,74.2,86.3,79.0,73.0,96,90,70,30.04,29.93,6,0,11,0.03
2013-7-8,77.0,76.4,76.0,75.8,75.2,74.1,96,96,96,30.03,30.00,0,0,0,0.00
2013-7-9,93.8,82.2,72.8,83.4,77.2,71.6,96,86,56,30.07,29.96,2,0,13,0.06
2013-7-10,91.6,79.2,72.5,81.6,76.0,71.3,96,90,68,30.00,29.88,3,0,12,0.49
2013-7-11,84.9,79.1,74.9,80.8,77.5,73.7,96,95,87,29.93,29.85,2,0,7,0.08
2013-7-12,80.7,74.9,72.3,79.5,73.7,71.1,96,96,96,29.87,29.81,7,0,8,1.77
2013-7-13,86.5,79.6,73.7,83.6,78.1,72.5,96,95,87,29.89,29.83,16,0,16,0.35
2013-7-19,88.2,76.7,71.6,85.1,75.2,70.4,96,95,85,30.03,29.96,8,0,20,0.19
2013-7-20,89.9,77.6,71.5,85.5,76.1,70.3,96,95,81,30.02,29.93,6,0,17,0.03
2013-7-21,89.5,83.1,74.2,86.7,80.2,73.0,96,91,81,30.03,29.95,14,2,14,0.00
2013-7-22,81.1,79.3,76.3,79.7,78.1,74.9,96,96,96,30.03,30.01,1,0,1,0.00
2013-7-23,80.5,80.0,79.2,79.3,78.8,78.0,96,96,96,30.01,29.91,0,0,0,0.05
2013-7-24,87.8,83.9,77.0,83.4,80.9,75.8,96,91,82,29.92,29.82,13,3,17,0.00
2013-7-25,83.4,81.6,79.0,82.1,80.4,77.8,96,96,96,29.90,29.84,12,1,12,0.02
2013-7-26,87.6,85.0,82.4,85.8,83.4,81.2,96,95,90,29.92,29.89,11,1,11,1.41
2013-7-27,90.7,83.0,76.1,85.2,80.0,74.9,96,91,75,29.91,29.82,4,1,12,0.00
2013-7-28,88.8,78.9,74.0,85.4,77.5,72.8,96,95,87,29.97,29.85,5,0,13,0.82
2013-7-29,95.1,81.1,72.3,84.6,77.3,71.1,96,89,63,30.06,29.93,3,0,16,0.00
2013-7-30,80.3,78.2,75.8,79.1,77.0,74.2,96,96,96,30.06,30.00,0,0,0,0.05
2013-7-31,77.2,77.0,77.0,76.0,75.8,75.8,96,96,96,30.04,30.04,0,0,0,0.00
2013-8-11,94.9,84.1,74.6,85.3,79.9,73.4,96,88,65,30.05,29.95,2,0,10,0.00
2013-8-12,96.6,84.0,74.9,87.2,79.1,73.7,96,87,59,30.04,29.91,1,0,8,0.00
2013-8-13,94.3,83.9,74.4,84.4,79.8,73.2,96,88,62,29.96,29.84,4,0,12,0.05
2013-8-14,90.3,82.6,77.0,87.0,80.5,75.8,96,93,76,29.92,29.83,3,0,13,0.15
2013-8-15,89.7,79.6,74.2,85.0,77.9,73.0,96,95,80,29.95,29.86,5,0,13,0.20
2013-8-16,92.5,82.6,76.3,85.9,79.7,75.1,96,92,69,29.95,29.86,3,0,10,0.17
2013-8-17,79.2,74.6,72.7,78.0,73.4,71.5,96,96,96,29.98,29.90,2,0,20,0.86
2013-8-18,90.3,77.3,74.2,82.7,75.9,73.0,96,96,85,30.00,29.94,11,0,11,0.52
2013-8-19,92.7,81.9,74.2,84.8,78.4,68.1,96,90,74,29.98,29.88,3,0,3,0.62
2013-8-20,78.5,75.4,73.7,77.3,74.2,72.5,96,96,96,29.98,29.92,1,0,1,0.14
2013-8-21,95.1,81.8,75.3,85.6,79.0,74.1,96,92,66,30.00,29.89,6,0,17,0.07
2013-8-22,77.7,76.1,74.6,76.5,74.9,73.2,96,96,96,29.96,29.91,5,0,5,0.07
2013-8-23,81.2,78.0,74.4,80.0,76.8,73.2,96,96,96,29.92,29.89,6,0,6,0.00
2013-8-24,79.8,75.6,74.7,78.6,74.4,73.5,96,96,96,30.02,29.92,4,0,4,0.66
2013-8-25,86.5,78.5,74.4,85.0,77.2,73.2,96,96,93,30.04,30.00,5,0,5,0.01
2013-8-26,79.6,76.9,74.9,78.4,75.7,73.5,96,96,96,30.04,29.93,4,0,4,0.24
2013-8-27,90.5,79.5,72.5,84.1,77.1,71.3,96,93,74,29.96,29.87,3,0,12,0.05
2013-8-28,93.8,79.0,71.3,83.3,75.6,70.1,96,90,60,29.96,29.89,5,0,14,0.00
2013-8-29,91.4,80.7,72.5,82.6,77.1,71.3,96,89,70,29.95,29.84,3,0,11,0.00
2013-8-30,88.2,80.2,74.9,85.2,78.5,73.7,96,95,78,29.90,29.81,4,0,12,0.92
2013-8-31,88.6,80.3,74.6,84.2,78.0,73.4,96,93,80,29.89,29.80,4,0,12,0.00
2013-9-1,90.7,79.9,73.9,82.3,77.3,72.5,96,92,71,29.90,29.83,11,0,11,0.02
2013-9-2,76.0,73.5,72.8,74.8,72.3,71.6,96,96,96,29.90,29.89,0,0,0,0.00
2013-9-3,89.9,79.6,74.2,84.2,77.8,73.0,96,94,77,29.95,29.84,4,0,13,0.09
2013-9-4,91.8,79.3,73.7,85.3,76.9,72.5,96,93,76,29.99,29.87,4,0,13,0.32
2013-9-5,95.9,81.2,73.5,86.8,77.7,72.3,96,90,64,30.00,29.89,3,0,12,0.00
2013-9-6,94.0,81.2,72.8,87.0,77.9,71.6,96,91,66,29.96,29.83,4,0,14,0.10
2013-9-7,91.8,79.1,70.9,85.7,76.1,69.7,96,91,67,29.93,29.82,3,0,13,0.07
2013-9-8,91.8,80.0,71.3,83.2,76.6,70.1,96,90,72,29.87,29.76,5,0,5,0.04
2013-9-9,82.8,76.5,74.4,76.4,75.3,73.2,96,96,96,29.90,29.87,3,0,3,0.00
2013-9-10,93.2,82.3,73.9,82.7,76.5,72.7,96,84,61,29.98,29.88,2,0,11,0.05
2013-9-11,90.7,81.2,74.0,82.8,77.0,71.6,96,88,65,29.97,29.88,13,1,13,0.00
2013-9-12,77.0,74.2,72.3,75.8,73.0,71.1,96,96,96,29.93,29.82,0,0,0,0.16
2013-9-13,87.2,75.4,70.6,82.5,74.0,69.4,96,95,83,29.82,29.72,5,0,5,0.00
2013-9-14,90.3,82.3,74.6,85.2,79.3,73.4,96,91,76,29.88,29.75,7,0,7,0.01
2013-9-15,93.4,77.5,69.6,84.3,74.7,68.4,96,92,73,29.99,29.87,6,0,7,2.40
2013-9-16,75.8,73.4,72.7,74.6,72.2,71.5,96,96,96,29.96,29.93,2,0,2,0.00
2013-9-17,92.3,77.5,72.1,84.6,75.4,70.9,96,94,73,29.96,29.85,3,0,12,0.69
2013-9-18,92.1,79.9,73.2,85.8,77.7,72.0,96,93,75,29.93,29.86,5,0,11,0.02
2013-9-19,85.1,76.5,73.7,81.8,75.1,72.5,96,96,90,29.93,29.88,4,0,4,0.05
2013-9-20,90.7,81.1,72.0,81.6,76.2,70.8,96,86,63,29.93,29.80,1,0,8,0.01
2013-9-21,87.6,78.0,71.1,81.2,74.4,69.9,96,90,73,29.85,29.76,3,0,3,0.02
2013-9-22,88.6,80.4,73.5,84.3,78.0,72.3,96,93,80,29.76,29.67,4,1,19,0.00
2013-9-23,80.7,76.9,74.9,79.5,75.7,73.7,96,96,96,29.86,29.74,6,0,10,1.81
2013-9-24,76.7,75.4,74.2,75.5,74.2,73.0,96,96,96,29.87,29.76,7,0,7,1.34
2013-9-25,78.1,74.3,70.8,76.7,73.1,69.6,96,96,96,29.86,29.70,19,1,19,1.27
2013-9-26,82.2,77.5,73.9,80.9,76.3,72.7,96,96,96,29.77,29.72,13,2,13,0.00
2013-9-27,89.0,77.7,69.9,82.2,75.0,68.7,96,92,73,29.86,29.77,2,0,10,0.00
2013-9-28,92.5,78.6,70.9,81.9,75.4,69.7,96,91,66,29.90,29.82,2,0,10,0.00
2013-9-29,91.6,79.5,69.8,80.1,73.9,68.6,96,85,54,29.89,29.79,1,0,7,0.00
2013-9-30,92.7,79.5,69.6,80.9,75.1,68.4,96,88,60,29.91,29.81,2,0,10,0.00
2013-10-1,92.3,80.5,71.6,82.8,76.3,70.4,96,88,65,29.95,29.85,1,0,8,0.05
2013-10-2,90.5,80.0,72.3,83.5,76.7,70.9,96,90,71,29.95,29.86,12,0,12,0.00
2013-10-3,92.5,80.0,71.5,82.6,76.2,70.3,96,89,66,29.97,29.87,8,0,8,0.00
2013-10-4,92.5,80.5,73.3,82.0,76.7,72.1,96,89,64,29.99,29.90,7,0,7,0.00
2013-10-5,91.6,80.0,72.3,82.6,76.3,71.1,96,90,64,29.97,29.84,7,0,7,0.00
2013-10-6,91.0,79.1,70.6,82.5,75.5,69.4,96,90,63,29.89,29.77,9,0,9,0.00
2013-10-7,86.1,78.0,73.2,84.8,76.8,72.0,96,96,96,29.78,29.67,13,2,20,0.54
2013-10-8,85.3,80.8,74.0,82.8,79.0,72.8,96,94,84,29.86,29.72,17,2,17,0.03
2013-10-9,80.9,74.5,68.1,78.7,73.2,66.9,96,96,89,29.95,29.84,6,0,6,0.00
2013-10-10,89.7,74.8,65.0,79.2,70.8,63.8,96,88,65,29.96,29.87,3,0,6,0.00
2013-10-11,69.6,67.7,65.5,68.4,66.5,64.3,96,96,96,29.94,29.87,0,0,0,0.00
2013-10-12,80.3,72.1,66.4,71.6,68.9,65.2,96,90,73,29.96,29.90,0,0,0,0.00
2013-10-13,88.0,70.3,64.2,72.4,66.9,63.0,96,91,59,29.96,29.94,2,0,2,0.00
2013-10-14,87.6,75.2,64.2,77.8,69.9,63.0,96,85,58,29.95,29.83,1,0,12,0.00
2013-10-15,74.2,69.9,66.0,72.8,68.7,64.8,96,96,96,29.91,29.83,1,0,1,0.04
2013-10-16,85.9,75.2,69.8,80.8,73.0,68.6,96,93,75,29.88,29.81,7,0,8,0.00
2013-10-17,88.0,76.5,67.6,80.3,73.2,66.2,96,90,68,29.89,29.81,3,0,11,0.04
2013-10-18,91.2,77.3,69.4,83.0,74.3,68.2,96,91,67,29.89,29.80,9,0,9,0.00
2013-10-19,90.1,78.9,71.3,82.1,76.3,70.1,96,92,71,29.86,29.77,10,0,10,0.03
2013-10-20,88.4,79.6,73.5,85.7,77.4,72.3,96,93,79,29.87,29.78,8,0,8,0.00
2013-10-21,88.2,78.7,73.0,84.3,76.2,71.8,96,92,73,29.91,29.82,10,0,10,0.00
2013-10-22,87.8,77.7,70.4,84.3,75.9,69.2,96,94,85,29.86,29.73,20,1,20,0.26
2013-10-23,82.6,74.6,68.8,75.1,69.2,60.0,96,84,52,29.92,29.72,9,0,9,0.01
2013-10-24,74.2,66.6,61.2,65.6,59.2,52.5,96,78,65,30.07,29.91,7,0,7,0.00
2013-10-25,85.3,68.5,55.9,67.9,61.1,54.8,96,80,45,30.15,30.05,4,0,7,0.01
2013-10-26,82.8,67.8,57.5,70.2,62.3,56.4,96,85,51,30.11,30.00,7,0,7,0.00
2013-10-27,84.5,67.1,54.7,68.8,61.0,53.6,96,83,48,30.03,29.95,7,0,7,0.00
2013-10-28,87.8,70.7,57.5,71.9,63.8,56.4,96,81,47,30.09,30.00,6,0,6,0.00
2013-10-29,88.2,74.2,62.0,75.6,68.1,60.8,96,83,53,30.13,30.02,8,0,8,0.02
2013-10-30,87.2,74.5,64.7,78.3,70.0,63.5,96,87,60,30.13,29.99,8,0,8,0.00
2013-10-31,87.4,74.2,64.2,77.0,70.0,63.0,96,88,63,30.03,29.88,10,0,10,0.00
2013-11-1,85.5,75.6,67.1,81.8,73.5,65.9,96,93,79,29.92,29.80,12,1,12,0.00
2013-11-2,76.5,71.0,64.3,75.3,69.7,62.8,96,96,91,29.89,29.74,19,0,19,0.16
2013-11-3,80.7,66.7,58.4,63.5,58.3,50.6,96,77,37,30.02,29.88,8,0,8,0.00
2013-11-4,82.2,68.6,57.3,69.4,63.5,55.6,96,85,60,30.05,29.98,14,0,14,0.00
2013-11-5,85.1,73.9,64.7,77.9,71.1,63.5,96,91,76,30.04,29.95,12,0,12,0.04
2013-11-6,88.2,76.1,68.8,78.1,72.0,67.6,96,88,64,30.01,29.91,8,0,8,0.01
2013-11-7,82.6,72.4,65.6,78.6,70.5,64.4,96,94,80,29.96,29.87,10,0,10,0.00
2013-11-8,82.6,71.2,64.2,75.9,68.1,62.8,96,91,69,30.01,29.90,11,0,11,0.00
2013-11-9,84.9,72.9,63.4,76.9,69.6,62.2,96,90,73,30.05,29.97,8,0,9,0.03
2013-11-10,84.9,73.1,65.2,78.1,69.7,64.0,96,90,68,30.07,29.96,7,0,7,0.00
2013-11-11,85.1,73.6,66.1,77.3,70.5,64.9,96,90,70,30.07,29.96,7,0,7,0.00
2013-11-12,81.1,71.9,64.7,76.9,70.1,63.5,96,94,81,30.02,29.91,8,0,8,0.05
2013-11-13,69.8,63.7,53.6,65.8,58.5,52.5,96,83,71,30.20,29.98,6,0,13,0.00
2013-11-14,78.5,63.8,51.3,65.2,58.5,50.2,96,84,60,30.19,30.06,13,0,13,0.00
2013-11-15,77.6,68.6,61.6,73.1,66.5,60.3,96,93,80,30.07,29.95,7,0,7,0.01
2013-11-16,78.1,72.1,68.4,76.9,70.7,67.2,96,96,92,30.02,29.93,11,0,11,0.02
2013-11-17,88.0,75.8,68.8,78.9,72.6,67.6,96,90,68,29.98,29.89,12,0,12,0.00
2013-11-18,84.7,75.1,67.1,80.7,73.0,65.9,96,94,82,29.93,29.84,9,0,10,0.00
2013-11-19,84.5,75.7,68.4,80.8,73.8,67.2,96,94,83,29.87,29.78,6,0,7,0.10
2013-11-20,86.5,72.9,64.2,80.9,70.8,63.0,96,93,77,29.99,29.87,8,0,8,0.06
2013-11-21,85.3,75.2,69.8,80.7,73.4,68.6,96,94,82,30.08,29.97,12,0,12,0.04
2013-11-22,86.3,75.3,67.8,80.4,72.7,66.4,96,92,74,30.08,29.98,11,0,11,0.03
2013-11-23,86.7,72.0,62.7,77.3,68.9,61.5,96,91,65,30.02,29.91,11,0,11,0.00
2013-11-24,74.6,65.9,59.6,70.5,64.2,58.5,96,94,84,30.12,29.93,16,0,16,0.05
2013-11-25,78.5,68.8,59.6,68.1,64.4,58.5,96,86,69,30.12,29.96,17,1,17,0.00
2013-11-26,83.0,75.5,67.3,79.9,74.2,66.1,96,95,90,29.95,29.69,18,2,18,0.54
2013-11-27,72.8,64.9,48.2,71.6,62.7,46.0,96,93,82,30.12,29.66,22,2,22,0.18
2013-11-28,68.9,52.5,37.6,57.8,47.8,36.6,96,85,59,30.25,30.12,8,0,10,0.00
2013-11-29,74.2,61.0,51.0,64.7,57.4,49.9,96,89,65,30.25,30.16,11,0,11,0.03
2013-11-30,76.8,63.1,53.9,71.8,61.0,52.8,96,93,81,30.21,30.07,6,0,10,0.02
2013-12-1,79.0,65.3,59.8,76.1,64.0,58.7,96,95,88,30.09,29.89,8,0,8,0.03
2013-12-2,70.4,64.1,58.9,67.8,62.8,57.8,96,95,87,29.89,29.76,6,0,6,0.01
2013-12-3,77.6,70.4,62.6,74.0,68.3,61.2,96,93,85,29.89,29.80,7,0,7,0.01
2013-12-4,83.6,70.9,61.6,78.2,68.8,60.5,96,93,76,29.99,29.87,8,0,8,0.00
2013-12-5,83.8,71.6,62.7,77.1,68.6,61.5,96,91,74,30.08,29.97,10,0,10,0.01
2013-12-6,86.1,73.1,64.5,80.9,70.7,63.3,96,93,73,30.08,29.98,13,0,13,0.04
2013-12-7,87.4,72.7,63.4,79.2,69.0,62.2,96,89,59,30.14,30.04,6,0,6,0.12
2013-12-8,85.5,72.8,63.9,80.4,69.4,62.7,96,90,63,30.12,30.00,11,0,11,0.00
2013-12-9,85.1,72.2,64.5,80.2,70.1,63.1,96,93,71,30.09,29.99,16,0,16,0.06
2013-12-10,83.6,73.2,60.4,80.2,70.6,59.3,96,92,74,30.07,29.99,12,1,12,0.05
2013-12-11,86.3,72.4,63.2,77.3,69.6,62.0,96,91,65,30.15,30.04,8,0,8,0.00
2013-12-12,76.1,65.2,53.1,68.9,58.9,38.5,96,82,48,30.20,30.08,1,0,11,0.04
2013-12-13,66.1,51.6,48.8,63.0,48.4,39.8,96,89,61,30.19,30.02,5,0,5,0.01
2013-12-23,84.3,74.4,65.8,82.3,72.9,64.6,96,95,89,30.07,29.99,3,0,14,0.00
2013-12-24,74.2,65.5,49.8,72.5,58.4,41.5,96,80,53,30.16,30.01,3,0,16,0.00
2013-12-25,79.4,61.7,47.0,68.6,56.8,43.6,96,84,69,30.15,30.02,1,0,11,0.00
2013-12-26,80.3,67.8,58.6,71.7,64.6,57.5,96,90,68,30.11,29.99,0,0,7,0.00
2013-12-27,77.9,67.4,61.2,74.2,66.0,60.0,96,95,88,30.15,30.02,0,0,8,0.00
2013-12-28,80.5,72.1,64.5,78.3,70.7,63.3,96,96,91,30.11,29.90,2,0,11,0.00
2013-12-29,75.6,70.8,62.9,74.4,69.6,61.8,96,96,96,29.92,29.80,3,1,16,0.19
2013-12-30,65.6,62.7,59.9,64.4,61.6,58.8,96,96,96,30.10,29.92,1,0,2,0.07
2013-12-31,67.8,62.4,57.6,61.2,58.8,56.5,96,88,75,30.20,30.06,5,0,6,0.01
2014-1-1,70.3,63.7,59.2,69.1,62.1,57.4,96,95,85,30.14,29.96,8,0,8,0.04
2014-1-2,81.6,70.1,60.9,80.3,68.9,59.8,96,96,95,29.96,29.76,20,1,20,0.14